sensor_id;sensor_type;location;lat;lon;timestamp;P1;durP1;ratioP1;P2;durP2;ratioP2
62693;SDS011;48759;52.544;13.418;2022-11-20T00:00:12;15.90;;;10.17;;
62693;SDS011;48759;52.544;13.418;2022-11-20T00:02:39;17.20;;;10.23;;
62693;SDS011;48759;52.544;13.418;2022-11-20T00:05:06;16.70;;;10.03;;
62693;SDS011;48759;52.544;13.418;2022-11-20T00:07:34;15.00;;;10.13;;
62693;SDS011;48759;52.544;13.418;2022-11-20T00:10:00;14.40;;;9.70;;
62693;SDS011;48759;52.544;13.418;2022-11-20T00:12:28;15.93;;;10.53;;
62693;SDS011;48759;52.544;13.418;2022-11-20T00:14:55;14.40;;;9.53;;
62693;SDS011;48759;52.544;13.418;2022-11-20T00:17:22;18.30;;;9.60;;
62693;SDS011;48759;52.544;13.418;2022-11-20T00:19:48;14.40;;;9.60;;
62693;SDS011;48759;52.544;13.418;2022-11-20T00:22:15;16.23;;;10.10;;
62693;SDS011;48759;52.544;13.418;2022-11-20T00:24:42;13.73;;;9.30;;
62693;SDS011;48759;52.544;13.418;2022-11-20T00:27:08;13.43;;;9.33;;
62693;SDS011;48759;52.544;13.418;2022-11-20T00:29:36;16.13;;;10.10;;
62693;SDS011;48759;52.544;13.418;2022-11-20T00:32:03;15.60;;;9.47;;
62693;SDS011;48759;52.544;13.418;2022-11-20T00:34:30;16.93;;;9.53;;
62693;SDS011;48759;52.544;13.418;2022-11-20T00:36:56;18.83;;;10.77;;
62693;SDS011;48759;52.544;13.418;2022-11-20T00:39:23;14.60;;;9.23;;
62693;SDS011;48759;52.544;13.418;2022-11-20T00:41:50;13.00;;;9.03;;
62693;SDS011;48759;52.544;13.418;2022-11-20T00:44:16;15.13;;;9.33;;
62693;SDS011;48759;52.544;13.418;2022-11-20T00:46:44;15.77;;;8.90;;
62693;SDS011;48759;52.544;13.418;2022-11-20T00:49:11;12.37;;;8.97;;
62693;SDS011;48759;52.544;13.418;2022-11-20T00:51:37;19.10;;;9.80;;
62693;SDS011;48759;52.544;13.418;2022-11-20T00:54:04;13.17;;;9.37;;
62693;SDS011;48759;52.544;13.418;2022-11-20T00:56:31;15.03;;;9.37;;
62693;SDS011;48759;52.544;13.418;2022-11-20T00:58:58;14.33;;;8.80;;
62693;SDS011;48759;52.544;13.418;2022-11-20T01:01:27;14.07;;;9.53;;
62693;SDS011;48759;52.544;13.418;2022-11-20T01:03:56;13.03;;;7.90;;
62693;SDS011;48759;52.544;13.418;2022-11-20T01:06:25;15.83;;;9.40;;
62693;SDS011;48759;52.544;13.418;2022-11-20T01:08:53;14.60;;;8.73;;
62693;SDS011;48759;52.544;13.418;2022-11-20T01:11:21;14.07;;;9.47;;
62693;SDS011;48759;52.544;13.418;2022-11-20T01:13:49;14.07;;;9.30;;
62693;SDS011;48759;52.544;13.418;2022-11-20T01:16:18;17.27;;;10.83;;
62693;SDS011;48759;52.544;13.418;2022-11-20T01:18:48;16.30;;;10.20;;
62693;SDS011;48759;52.544;13.418;2022-11-20T01:21:18;14.77;;;10.47;;
62693;SDS011;48759;52.544;13.418;2022-11-20T01:23:47;14.00;;;8.40;;
62693;SDS011;48759;52.544;13.418;2022-11-20T01:26:15;17.00;;;9.97;;
62693;SDS011;48759;52.544;13.418;2022-11-20T01:28:43;15.00;;;9.43;;
62693;SDS011;48759;52.544;13.418;2022-11-20T01:31:10;14.20;;;8.73;;
62693;SDS011;48759;52.544;13.418;2022-11-20T01:33:39;14.27;;;8.77;;
62693;SDS011;48759;52.544;13.418;2022-11-20T01:36:06;15.20;;;10.40;;
62693;SDS011;48759;52.544;13.418;2022-11-20T01:38:35;15.93;;;10.47;;
62693;SDS011;48759;52.544;13.418;2022-11-20T01:41:02;13.00;;;9.50;;
62693;SDS011;48759;52.544;13.418;2022-11-20T01:43:29;20.00;;;10.10;;
62693;SDS011;48759;52.544;13.418;2022-11-20T01:45:57;16.60;;;9.03;;
62693;SDS011;48759;52.544;13.418;2022-11-20T01:48:40;17.60;;;9.80;;
62693;SDS011;48759;52.544;13.418;2022-11-20T01:51:17;22.80;;;9.80;;
62693;SDS011;48759;52.544;13.418;2022-11-20T01:53:53;16.77;;;9.03;;
62693;SDS011;48759;52.544;13.418;2022-11-20T01:56:22;20.10;;;9.53;;
62693;SDS011;48759;52.544;13.418;2022-11-20T01:58:50;16.13;;;10.03;;
62693;SDS011;48759;52.544;13.418;2022-11-20T02:01:20;19.20;;;10.13;;
62693;SDS011;48759;52.544;13.418;2022-11-20T02:03:47;16.63;;;9.30;;
62693;SDS011;48759;52.544;13.418;2022-11-20T02:06:17;14.73;;;9.60;;
62693;SDS011;48759;52.544;13.418;2022-11-20T02:08:49;14.37;;;8.70;;
62693;SDS011;48759;52.544;13.418;2022-11-20T02:11:18;19.20;;;10.20;;
62693;SDS011;48759;52.544;13.418;2022-11-20T02:13:45;16.53;;;9.83;;
62693;SDS011;48759;52.544;13.418;2022-11-20T02:16:12;15.70;;;9.40;;
62693;SDS011;48759;52.544;13.418;2022-11-20T02:18:42;16.27;;;10.00;;
62693;SDS011;48759;52.544;13.418;2022-11-20T02:21:12;13.07;;;8.90;;
62693;SDS011;48759;52.544;13.418;2022-11-20T02:24:02;13.90;;;9.70;;
62693;SDS011;48759;52.544;13.418;2022-11-20T02:26:33;13.83;;;9.23;;
62693;SDS011;48759;52.544;13.418;2022-11-20T02:29:02;16.33;;;10.33;;
62693;SDS011;48759;52.544;13.418;2022-11-20T02:31:34;13.53;;;9.73;;
62693;SDS011;48759;52.544;13.418;2022-11-20T02:34:02;16.13;;;10.23;;
62693;SDS011;48759;52.544;13.418;2022-11-20T02:36:29;14.90;;;9.57;;
62693;SDS011;48759;52.544;13.418;2022-11-20T02:38:59;14.10;;;10.13;;
62693;SDS011;48759;52.544;13.418;2022-11-20T02:41:31;16.83;;;9.40;;
62693;SDS011;48759;52.544;13.418;2022-11-20T02:44:03;16.40;;;9.43;;
62693;SDS011;48759;52.544;13.418;2022-11-20T02:46:30;15.03;;;9.20;;
62693;SDS011;48759;52.544;13.418;2022-11-20T02:48:58;16.20;;;11.57;;
62693;SDS011;48759;52.544;13.418;2022-11-20T02:51:24;16.53;;;9.63;;
62693;SDS011;48759;52.544;13.418;2022-11-20T02:53:51;16.60;;;9.63;;
62693;SDS011;48759;52.544;13.418;2022-11-20T02:56:18;16.40;;;10.30;;
62693;SDS011;48759;52.544;13.418;2022-11-20T02:58:46;13.53;;;9.63;;
62693;SDS011;48759;52.544;13.418;2022-11-20T03:01:12;15.60;;;11.03;;
62693;SDS011;48759;52.544;13.418;2022-11-20T03:03:39;14.80;;;10.63;;
62693;SDS011;48759;52.544;13.418;2022-11-20T03:06:06;14.17;;;10.30;;
62693;SDS011;48759;52.544;13.418;2022-11-20T03:08:34;15.00;;;10.13;;
62693;SDS011;48759;52.544;13.418;2022-11-20T03:11:02;16.70;;;10.43;;
62693;SDS011;48759;52.544;13.418;2022-11-20T03:13:31;19.10;;;10.63;;
62693;SDS011;48759;52.544;13.418;2022-11-20T03:16:03;14.43;;;9.97;;
62693;SDS011;48759;52.544;13.418;2022-11-20T03:18:31;17.53;;;9.77;;
62693;SDS011;48759;52.544;13.418;2022-11-20T03:20:58;19.70;;;11.13;;
62693;SDS011;48759;52.544;13.418;2022-11-20T03:23:25;19.40;;;10.47;;
62693;SDS011;48759;52.544;13.418;2022-11-20T03:25:52;14.73;;;10.40;;
62693;SDS011;48759;52.544;13.418;2022-11-20T03:28:19;17.47;;;10.50;;
62693;SDS011;48759;52.544;13.418;2022-11-20T03:30:45;17.30;;;10.33;;
62693;SDS011;48759;52.544;13.418;2022-11-20T03:33:14;17.77;;;10.57;;
62693;SDS011;48759;52.544;13.418;2022-11-20T03:35:40;24.27;;;11.63;;
62693;SDS011;48759;52.544;13.418;2022-11-20T03:38:07;16.57;;;11.10;;
62693;SDS011;48759;52.544;13.418;2022-11-20T03:40:34;13.97;;;9.90;;
62693;SDS011;48759;52.544;13.418;2022-11-20T03:43:00;15.63;;;10.60;;
62693;SDS011;48759;52.544;13.418;2022-11-20T03:45:27;20.33;;;12.03;;
62693;SDS011;48759;52.544;13.418;2022-11-20T03:47:54;27.83;;;12.20;;
62693;SDS011;48759;52.544;13.418;2022-11-20T03:50:22;16.37;;;10.40;;
62693;SDS011;48759;52.544;13.418;2022-11-20T03:52:49;18.03;;;10.40;;
62693;SDS011;48759;52.544;13.418;2022-11-20T03:55:15;16.13;;;11.70;;
62693;SDS011;48759;52.544;13.418;2022-11-20T03:57:42;22.17;;;12.17;;
62693;SDS011;48759;52.544;13.418;2022-11-20T04:00:09;19.27;;;11.73;;
62693;SDS011;48759;52.544;13.418;2022-11-20T04:02:37;19.17;;;11.90;;
62693;SDS011;48759;52.544;13.418;2022-11-20T04:05:04;21.63;;;12.43;;
62693;SDS011;48759;52.544;13.418;2022-11-20T04:07:33;16.87;;;10.20;;
62693;SDS011;48759;52.544;13.418;2022-11-20T04:10:00;19.33;;;10.90;;
62693;SDS011;48759;52.544;13.418;2022-11-20T04:12:27;16.50;;;10.70;;
62693;SDS011;48759;52.544;13.418;2022-11-20T04:14:53;20.80;;;11.17;;
62693;SDS011;48759;52.544;13.418;2022-11-20T04:17:20;19.37;;;11.27;;
62693;SDS011;48759;52.544;13.418;2022-11-20T04:19:47;15.57;;;10.60;;
62693;SDS011;48759;52.544;13.418;2022-11-20T04:22:13;17.40;;;10.77;;
62693;SDS011;48759;52.544;13.418;2022-11-20T04:24:41;13.47;;;10.27;;
62693;SDS011;48759;52.544;13.418;2022-11-20T04:27:08;16.23;;;10.97;;
62693;SDS011;48759;52.544;13.418;2022-11-20T04:29:34;15.73;;;10.90;;
62693;SDS011;48759;52.544;13.418;2022-11-20T04:32:01;17.57;;;10.60;;
62693;SDS011;48759;52.544;13.418;2022-11-20T04:34:28;16.17;;;10.37;;
62693;SDS011;48759;52.544;13.418;2022-11-20T04:36:54;16.10;;;10.37;;
62693;SDS011;48759;52.544;13.418;2022-11-20T04:39:21;18.90;;;10.37;;
62693;SDS011;48759;52.544;13.418;2022-11-20T04:41:49;15.00;;;9.73;;
62693;SDS011;48759;52.544;13.418;2022-11-20T04:44:36;17.00;;;9.90;;
62693;SDS011;48759;52.544;13.418;2022-11-20T04:47:03;20.20;;;10.60;;
62693;SDS011;48759;52.544;13.418;2022-11-20T04:49:29;15.83;;;10.50;;
62693;SDS011;48759;52.544;13.418;2022-11-20T04:51:56;17.90;;;10.43;;
62693;SDS011;48759;52.544;13.418;2022-11-20T04:54:23;16.17;;;10.90;;
62693;SDS011;48759;52.544;13.418;2022-11-20T04:56:51;17.93;;;10.60;;
62693;SDS011;48759;52.544;13.418;2022-11-20T04:59:18;14.80;;;9.80;;
62693;SDS011;48759;52.544;13.418;2022-11-20T05:01:45;19.17;;;10.37;;
62693;SDS011;48759;52.544;13.418;2022-11-20T05:04:11;19.60;;;11.07;;
62693;SDS011;48759;52.544;13.418;2022-11-20T05:06:38;16.83;;;10.80;;
62693;SDS011;48759;52.544;13.418;2022-11-20T05:09:04;21.30;;;12.27;;
62693;SDS011;48759;52.544;13.418;2022-11-20T05:11:33;16.10;;;10.83;;
62693;SDS011;48759;52.544;13.418;2022-11-20T05:14:01;20.23;;;10.87;;
62693;SDS011;48759;52.544;13.418;2022-11-20T05:16:28;18.60;;;10.03;;
62693;SDS011;48759;52.544;13.418;2022-11-20T05:18:54;28.10;;;11.13;;
62693;SDS011;48759;52.544;13.418;2022-11-20T05:21:22;17.10;;;11.30;;
62693;SDS011;48759;52.544;13.418;2022-11-20T05:23:48;22.67;;;11.70;;
62693;SDS011;48759;52.544;13.418;2022-11-20T05:26:16;17.27;;;10.07;;
62693;SDS011;48759;52.544;13.418;2022-11-20T05:28:44;17.70;;;11.30;;
62693;SDS011;48759;52.544;13.418;2022-11-20T05:31:13;19.90;;;10.63;;
62693;SDS011;48759;52.544;13.418;2022-11-20T05:33:42;16.90;;;9.30;;
62693;SDS011;48759;52.544;13.418;2022-11-20T05:36:09;14.90;;;9.73;;
62693;SDS011;48759;52.544;13.418;2022-11-20T05:38:37;15.10;;;9.77;;
62693;SDS011;48759;52.544;13.418;2022-11-20T05:41:04;16.03;;;10.23;;
62693;SDS011;48759;52.544;13.418;2022-11-20T05:43:32;17.50;;;11.50;;
62693;SDS011;48759;52.544;13.418;2022-11-20T05:46:00;20.47;;;9.97;;
62693;SDS011;48759;52.544;13.418;2022-11-20T05:48:29;17.03;;;10.40;;
62693;SDS011;48759;52.544;13.418;2022-11-20T05:50:56;16.17;;;10.07;;
62693;SDS011;48759;52.544;13.418;2022-11-20T05:53:23;17.40;;;10.20;;
62693;SDS011;48759;52.544;13.418;2022-11-20T05:55:57;16.00;;;9.30;;
62693;SDS011;48759;52.544;13.418;2022-11-20T05:58:24;16.53;;;9.40;;
62693;SDS011;48759;52.544;13.418;2022-11-20T06:00:51;17.90;;;10.30;;
62693;SDS011;48759;52.544;13.418;2022-11-20T06:03:17;21.83;;;11.03;;
62693;SDS011;48759;52.544;13.418;2022-11-20T06:05:46;15.63;;;10.70;;
62693;SDS011;48759;52.544;13.418;2022-11-20T06:08:13;17.00;;;10.10;;
62693;SDS011;48759;52.544;13.418;2022-11-20T06:10:39;14.30;;;9.37;;
62693;SDS011;48759;52.544;13.418;2022-11-20T06:13:06;16.87;;;10.73;;
62693;SDS011;48759;52.544;13.418;2022-11-20T06:15:35;14.57;;;10.43;;
62693;SDS011;48759;52.544;13.418;2022-11-20T06:18:02;16.27;;;10.50;;
62693;SDS011;48759;52.544;13.418;2022-11-20T06:20:28;18.20;;;10.33;;
62693;SDS011;48759;52.544;13.418;2022-11-20T06:23:00;14.77;;;9.70;;
62693;SDS011;48759;52.544;13.418;2022-11-20T06:25:32;20.30;;;11.30;;
62693;SDS011;48759;52.544;13.418;2022-11-20T06:27:59;14.37;;;9.23;;
62693;SDS011;48759;52.544;13.418;2022-11-20T06:30:25;17.00;;;10.90;;
62693;SDS011;48759;52.544;13.418;2022-11-20T06:32:53;17.53;;;10.40;;
62693;SDS011;48759;52.544;13.418;2022-11-20T06:35:20;15.20;;;9.10;;
62693;SDS011;48759;52.544;13.418;2022-11-20T06:37:47;19.67;;;11.13;;
62693;SDS011;48759;52.544;13.418;2022-11-20T06:40:15;17.03;;;10.97;;
62693;SDS011;48759;52.544;13.418;2022-11-20T06:42:41;18.97;;;10.50;;
62693;SDS011;48759;52.544;13.418;2022-11-20T06:45:08;13.70;;;10.60;;
62693;SDS011;48759;52.544;13.418;2022-11-20T06:47:36;20.13;;;10.10;;
62693;SDS011;48759;52.544;13.418;2022-11-20T06:50:03;19.43;;;9.93;;
62693;SDS011;48759;52.544;13.418;2022-11-20T06:52:33;16.07;;;9.97;;
62693;SDS011;48759;52.544;13.418;2022-11-20T06:55:00;14.60;;;9.50;;
62693;SDS011;48759;52.544;13.418;2022-11-20T06:57:28;17.33;;;10.53;;
62693;SDS011;48759;52.544;13.418;2022-11-20T06:59:55;19.70;;;10.90;;
62693;SDS011;48759;52.544;13.418;2022-11-20T07:02:22;14.93;;;10.27;;
62693;SDS011;48759;52.544;13.418;2022-11-20T07:04:49;18.00;;;11.10;;
62693;SDS011;48759;52.544;13.418;2022-11-20T07:07:16;16.23;;;10.50;;
62693;SDS011;48759;52.544;13.418;2022-11-20T07:09:43;17.07;;;10.00;;
62693;SDS011;48759;52.544;13.418;2022-11-20T07:12:10;18.90;;;11.67;;
62693;SDS011;48759;52.544;13.418;2022-11-20T07:14:38;17.67;;;10.70;;
62693;SDS011;48759;52.544;13.418;2022-11-20T07:17:04;19.50;;;10.33;;
62693;SDS011;48759;52.544;13.418;2022-11-20T07:19:31;15.10;;;10.40;;
62693;SDS011;48759;52.544;13.418;2022-11-20T07:21:58;18.33;;;9.40;;
62693;SDS011;48759;52.544;13.418;2022-11-20T07:24:24;17.10;;;11.20;;
62693;SDS011;48759;52.544;13.418;2022-11-20T07:26:51;17.73;;;10.97;;
62693;SDS011;48759;52.544;13.418;2022-11-20T07:29:18;17.07;;;10.40;;
62693;SDS011;48759;52.544;13.418;2022-11-20T07:31:46;17.30;;;11.70;;
62693;SDS011;48759;52.544;13.418;2022-11-20T07:34:12;17.83;;;10.30;;
62693;SDS011;48759;52.544;13.418;2022-11-20T07:36:39;16.60;;;11.10;;
62693;SDS011;48759;52.544;13.418;2022-11-20T07:39:06;19.00;;;10.87;;
62693;SDS011;48759;52.544;13.418;2022-11-20T07:41:33;13.83;;;9.47;;
62693;SDS011;48759;52.544;13.418;2022-11-20T07:43:59;17.80;;;10.17;;
62693;SDS011;48759;52.544;13.418;2022-11-20T07:46:27;17.10;;;11.80;;
62693;SDS011;48759;52.544;13.418;2022-11-20T07:48:55;15.13;;;10.53;;
62693;SDS011;48759;52.544;13.418;2022-11-20T07:51:23;16.57;;;11.20;;
62693;SDS011;48759;52.544;13.418;2022-11-20T07:53:50;21.53;;;10.30;;
62693;SDS011;48759;52.544;13.418;2022-11-20T07:56:17;16.20;;;10.50;;
62693;SDS011;48759;52.544;13.418;2022-11-20T07:58:44;23.10;;;11.70;;
62693;SDS011;48759;52.544;13.418;2022-11-20T08:01:11;19.90;;;11.90;;
62693;SDS011;48759;52.544;13.418;2022-11-20T08:03:38;15.80;;;10.07;;
62693;SDS011;48759;52.544;13.418;2022-11-20T08:06:06;18.73;;;10.90;;
62693;SDS011;48759;52.544;13.418;2022-11-20T08:08:34;16.10;;;11.40;;
62693;SDS011;48759;52.544;13.418;2022-11-20T08:11:01;18.30;;;11.27;;
62693;SDS011;48759;52.544;13.418;2022-11-20T08:13:41;16.03;;;10.87;;
62693;SDS011;48759;52.544;13.418;2022-11-20T08:16:25;18.87;;;11.87;;
62693;SDS011;48759;52.544;13.418;2022-11-20T08:18:53;17.57;;;10.07;;
62693;SDS011;48759;52.544;13.418;2022-11-20T08:21:21;15.47;;;10.93;;
62693;SDS011;48759;52.544;13.418;2022-11-20T08:23:47;18.27;;;11.23;;
62693;SDS011;48759;52.544;13.418;2022-11-20T08:26:14;15.30;;;10.00;;
62693;SDS011;48759;52.544;13.418;2022-11-20T08:28:41;16.33;;;10.50;;
62693;SDS011;48759;52.544;13.418;2022-11-20T08:31:09;18.70;;;12.10;;
62693;SDS011;48759;52.544;13.418;2022-11-20T08:33:35;20.83;;;12.10;;
62693;SDS011;48759;52.544;13.418;2022-11-20T08:36:03;18.80;;;10.83;;
62693;SDS011;48759;52.544;13.418;2022-11-20T08:38:32;17.13;;;10.63;;
62693;SDS011;48759;52.544;13.418;2022-11-20T08:40:59;19.20;;;11.70;;
62693;SDS011;48759;52.544;13.418;2022-11-20T08:43:44;17.47;;;11.13;;
62693;SDS011;48759;52.544;13.418;2022-11-20T08:46:11;16.83;;;10.57;;
62693;SDS011;48759;52.544;13.418;2022-11-20T08:48:39;16.77;;;11.97;;
62693;SDS011;48759;52.544;13.418;2022-11-20T08:51:06;18.63;;;11.27;;
62693;SDS011;48759;52.544;13.418;2022-11-20T08:53:34;19.03;;;12.20;;
62693;SDS011;48759;52.544;13.418;2022-11-20T08:56:01;18.53;;;11.63;;
62693;SDS011;48759;52.544;13.418;2022-11-20T08:58:28;19.70;;;12.20;;
62693;SDS011;48759;52.544;13.418;2022-11-20T09:00:56;22.40;;;11.77;;
62693;SDS011;48759;52.544;13.418;2022-11-20T09:03:34;17.93;;;11.37;;
62693;SDS011;48759;52.544;13.418;2022-11-20T09:06:04;16.90;;;11.20;;
62693;SDS011;48759;52.544;13.418;2022-11-20T09:08:32;16.20;;;11.27;;
62693;SDS011;48759;52.544;13.418;2022-11-20T09:11:00;17.73;;;10.97;;
62693;SDS011;48759;52.544;13.418;2022-11-20T09:13:29;23.50;;;11.20;;
62693;SDS011;48759;52.544;13.418;2022-11-20T09:16:00;19.80;;;11.53;;
62693;SDS011;48759;52.544;13.418;2022-11-20T09:18:29;21.53;;;11.47;;
62693;SDS011;48759;52.544;13.418;2022-11-20T09:21:01;19.47;;;11.20;;
62693;SDS011;48759;52.544;13.418;2022-11-20T09:23:31;18.80;;;11.53;;
62693;SDS011;48759;52.544;13.418;2022-11-20T09:26:02;17.30;;;12.83;;
62693;SDS011;48759;52.544;13.418;2022-11-20T09:28:29;21.57;;;12.43;;
62693;SDS011;48759;52.544;13.418;2022-11-20T09:30:56;18.20;;;11.93;;
62693;SDS011;48759;52.544;13.418;2022-11-20T09:33:23;19.40;;;11.83;;
62693;SDS011;48759;52.544;13.418;2022-11-20T09:35:50;20.00;;;12.33;;
62693;SDS011;48759;52.544;13.418;2022-11-20T09:38:16;20.33;;;10.07;;
62693;SDS011;48759;52.544;13.418;2022-11-20T09:40:44;17.13;;;10.90;;
62693;SDS011;48759;52.544;13.418;2022-11-20T09:43:17;16.47;;;11.07;;
62693;SDS011;48759;52.544;13.418;2022-11-20T09:48:41;15.93;;;11.80;;
62693;SDS011;48759;52.544;13.418;2022-11-20T09:51:16;17.47;;;11.27;;
62693;SDS011;48759;52.544;13.418;2022-11-20T09:53:55;17.37;;;10.80;;
62693;SDS011;48759;52.544;13.418;2022-11-20T09:56:36;16.57;;;10.90;;
62693;SDS011;48759;52.544;13.418;2022-11-20T09:59:06;18.07;;;11.80;;
62693;SDS011;48759;52.544;13.418;2022-11-20T10:01:40;18.90;;;12.73;;
62693;SDS011;48759;52.544;13.418;2022-11-20T10:04:10;39.80;;;21.90;;
62693;SDS011;48759;52.544;13.418;2022-11-20T10:06:44;25.33;;;16.20;;
62693;SDS011;48759;52.544;13.418;2022-11-20T10:09:20;22.97;;;13.30;;
62693;SDS011;48759;52.544;13.418;2022-11-20T10:11:56;20.07;;;11.90;;
62693;SDS011;48759;52.544;13.418;2022-11-20T10:14:36;22.63;;;14.10;;
62693;SDS011;48759;52.544;13.418;2022-11-20T10:17:15;14.43;;;10.23;;
62693;SDS011;48759;52.544;13.418;2022-11-20T10:19:55;16.30;;;10.90;;
62693;SDS011;48759;52.544;13.418;2022-11-20T10:22:41;17.37;;;11.07;;
62693;SDS011;48759;52.544;13.418;2022-11-20T10:25:24;18.30;;;11.87;;
62693;SDS011;48759;52.544;13.418;2022-11-20T10:28:03;19.10;;;11.57;;
62693;SDS011;48759;52.544;13.418;2022-11-20T10:30:43;16.23;;;10.93;;
62693;SDS011;48759;52.544;13.418;2022-11-20T10:33:15;19.33;;;11.50;;
62693;SDS011;48759;52.544;13.418;2022-11-20T10:35:45;18.17;;;11.70;;
62693;SDS011;48759;52.544;13.418;2022-11-20T10:38:19;20.53;;;11.80;;
62693;SDS011;48759;52.544;13.418;2022-11-20T10:40:52;17.37;;;10.87;;
62693;SDS011;48759;52.544;13.418;2022-11-20T10:43:43;16.30;;;10.60;;
62693;SDS011;48759;52.544;13.418;2022-11-20T10:46:14;18.30;;;11.47;;
62693;SDS011;48759;52.544;13.418;2022-11-20T10:48:43;16.53;;;11.40;;
62693;SDS011;48759;52.544;13.418;2022-11-20T10:51:14;17.90;;;11.70;;
62693;SDS011;48759;52.544;13.418;2022-11-20T10:53:53;23.90;;;11.80;;
62693;SDS011;48759;52.544;13.418;2022-11-20T10:56:25;21.77;;;12.10;;
62693;SDS011;48759;52.544;13.418;2022-11-20T10:59:04;15.60;;;10.67;;
62693;SDS011;48759;52.544;13.418;2022-11-20T11:01:51;18.30;;;11.83;;
62693;SDS011;48759;52.544;13.418;2022-11-20T11:04:23;17.77;;;11.10;;
62693;SDS011;48759;52.544;13.418;2022-11-20T11:07:04;16.60;;;11.60;;
62693;SDS011;48759;52.544;13.418;2022-11-20T11:09:50;19.07;;;11.53;;
62693;SDS011;48759;52.544;13.418;2022-11-20T11:12:23;15.50;;;10.60;;
62693;SDS011;48759;52.544;13.418;2022-11-20T11:14:57;16.17;;;10.60;;
62693;SDS011;48759;52.544;13.418;2022-11-20T11:17:28;13.77;;;9.77;;
62693;SDS011;48759;52.544;13.418;2022-11-20T11:19:58;14.73;;;10.80;;
62693;SDS011;48759;52.544;13.418;2022-11-20T11:22:34;16.10;;;10.20;;
62693;SDS011;48759;52.544;13.418;2022-11-20T11:25:28;15.20;;;10.00;;
62693;SDS011;48759;52.544;13.418;2022-11-20T11:28:02;15.83;;;11.13;;
62693;SDS011;48759;52.544;13.418;2022-11-20T11:30:41;17.30;;;10.93;;
62693;SDS011;48759;52.544;13.418;2022-11-20T11:33:18;13.60;;;10.03;;
62693;SDS011;48759;52.544;13.418;2022-11-20T11:35:48;16.40;;;10.87;;
62693;SDS011;48759;52.544;13.418;2022-11-20T11:38:23;17.40;;;9.93;;
62693;SDS011;48759;52.544;13.418;2022-11-20T11:40:57;16.00;;;9.40;;
62693;SDS011;48759;52.544;13.418;2022-11-20T11:43:25;14.27;;;10.27;;
62693;SDS011;48759;52.544;13.418;2022-11-20T11:46:26;16.13;;;10.20;;
62693;SDS011;48759;52.544;13.418;2022-11-20T11:49:01;17.10;;;10.27;;
62693;SDS011;48759;52.544;13.418;2022-11-20T11:51:49;18.83;;;10.93;;
62693;SDS011;48759;52.544;13.418;2022-11-20T11:54:30;17.37;;;10.13;;
62693;SDS011;48759;52.544;13.418;2022-11-20T11:57:04;14.47;;;9.33;;
62693;SDS011;48759;52.544;13.418;2022-11-20T11:59:40;22.23;;;9.60;;
62693;SDS011;48759;52.544;13.418;2022-11-20T12:02:24;21.90;;;11.00;;
62693;SDS011;48759;52.544;13.418;2022-11-20T12:04:59;14.03;;;9.83;;
62693;SDS011;48759;52.544;13.418;2022-11-20T12:07:36;20.83;;;10.77;;
62693;SDS011;48759;52.544;13.418;2022-11-20T12:10:12;16.07;;;10.43;;
62693;SDS011;48759;52.544;13.418;2022-11-20T12:12:44;12.37;;;8.77;;
62693;SDS011;48759;52.544;13.418;2022-11-20T12:15:16;14.77;;;9.20;;
62693;SDS011;48759;52.544;13.418;2022-11-20T12:17:52;13.13;;;9.43;;
62693;SDS011;48759;52.544;13.418;2022-11-20T12:20:20;14.93;;;9.60;;
62693;SDS011;48759;52.544;13.418;2022-11-20T12:23:08;13.63;;;9.70;;
62693;SDS011;48759;52.544;13.418;2022-11-20T12:25:43;20.00;;;10.47;;
62693;SDS011;48759;52.544;13.418;2022-11-20T12:28:24;16.03;;;9.60;;
62693;SDS011;48759;52.544;13.418;2022-11-20T12:34:03;20.90;;;12.27;;
62693;SDS011;48759;52.544;13.418;2022-11-20T12:36:42;17.03;;;10.40;;
62693;SDS011;48759;52.544;13.418;2022-11-20T12:39:19;17.40;;;10.70;;
62693;SDS011;48759;52.544;13.418;2022-11-20T12:41:59;16.20;;;10.40;;
62693;SDS011;48759;52.544;13.418;2022-11-20T12:50:52;16.50;;;9.40;;
62693;SDS011;48759;52.544;13.418;2022-11-20T12:53:37;17.90;;;10.07;;
62693;SDS011;48759;52.544;13.418;2022-11-20T12:56:12;12.93;;;8.00;;
62693;SDS011;48759;52.544;13.418;2022-11-20T12:58:53;12.20;;;8.00;;
62693;SDS011;48759;52.544;13.418;2022-11-20T13:01:35;9.80;;;6.60;;
62693;SDS011;48759;52.544;13.418;2022-11-20T13:04:08;10.40;;;7.33;;
62693;SDS011;48759;52.544;13.418;2022-11-20T13:06:43;11.77;;;7.50;;
62693;SDS011;48759;52.544;13.418;2022-11-20T13:09:12;10.30;;;7.27;;
62693;SDS011;48759;52.544;13.418;2022-11-20T13:11:42;10.63;;;7.67;;
62693;SDS011;48759;52.544;13.418;2022-11-20T13:14:24;13.57;;;7.27;;
62693;SDS011;48759;52.544;13.418;2022-11-20T13:17:00;10.13;;;6.80;;
62693;SDS011;48759;52.544;13.418;2022-11-20T13:19:31;10.57;;;6.83;;
62693;SDS011;48759;52.544;13.418;2022-11-20T13:21:59;12.40;;;5.73;;
62693;SDS011;48759;52.544;13.418;2022-11-20T13:24:28;13.50;;;7.80;;
62693;SDS011;48759;52.544;13.418;2022-11-20T13:26:59;10.30;;;7.07;;
62693;SDS011;48759;52.544;13.418;2022-11-20T13:29:28;10.57;;;6.57;;
62693;SDS011;48759;52.544;13.418;2022-11-20T13:32:02;9.63;;;7.27;;
62693;SDS011;48759;52.544;13.418;2022-11-20T13:34:31;10.80;;;7.13;;
62693;SDS011;48759;52.544;13.418;2022-11-20T13:36:59;12.47;;;8.77;;
62693;SDS011;48759;52.544;13.418;2022-11-20T13:39:30;12.17;;;8.20;;
62693;SDS011;48759;52.544;13.418;2022-11-20T13:41:58;16.10;;;9.00;;
62693;SDS011;48759;52.544;13.418;2022-11-20T13:44:33;14.70;;;9.17;;
62693;SDS011;48759;52.544;13.418;2022-11-20T13:47:04;13.07;;;7.73;;
62693;SDS011;48759;52.544;13.418;2022-11-20T13:49:47;11.60;;;7.67;;
62693;SDS011;48759;52.544;13.418;2022-11-20T13:55:15;9.37;;;6.80;;
62693;SDS011;48759;52.544;13.418;2022-11-20T13:58:03;10.57;;;7.20;;
62693;SDS011;48759;52.544;13.418;2022-11-20T14:00:44;13.90;;;8.60;;
62693;SDS011;48759;52.544;13.418;2022-11-20T14:03:17;13.23;;;7.97;;
62693;SDS011;48759;52.544;13.418;2022-11-20T14:05:49;11.33;;;8.57;;
62693;SDS011;48759;52.544;13.418;2022-11-20T14:08:23;11.10;;;7.90;;
62693;SDS011;48759;52.544;13.418;2022-11-20T14:11:06;14.13;;;10.23;;
62693;SDS011;48759;52.544;13.418;2022-11-20T14:13:51;12.70;;;8.20;;
62693;SDS011;48759;52.544;13.418;2022-11-20T14:16:20;14.00;;;9.33;;
62693;SDS011;48759;52.544;13.418;2022-11-20T14:18:47;13.73;;;9.23;;
62693;SDS011;48759;52.544;13.418;2022-11-20T14:21:20;12.10;;;8.50;;
62693;SDS011;48759;52.544;13.418;2022-11-20T14:23:49;12.87;;;8.50;;
62693;SDS011;48759;52.544;13.418;2022-11-20T14:26:20;14.70;;;9.10;;
62693;SDS011;48759;52.544;13.418;2022-11-20T14:28:48;13.00;;;8.87;;
62693;SDS011;48759;52.544;13.418;2022-11-20T14:31:18;13.30;;;8.53;;
62693;SDS011;48759;52.544;13.418;2022-11-20T14:33:49;14.10;;;8.60;;
62693;SDS011;48759;52.544;13.418;2022-11-20T14:36:16;16.13;;;8.70;;
62693;SDS011;48759;52.544;13.418;2022-11-20T14:38:44;12.83;;;7.97;;
62693;SDS011;48759;52.544;13.418;2022-11-20T14:41:16;17.10;;;9.13;;
62693;SDS011;48759;52.544;13.418;2022-11-20T14:43:46;11.87;;;8.70;;
62693;SDS011;48759;52.544;13.418;2022-11-20T14:46:16;14.40;;;9.30;;